createdAt,value
2022-11-24T00:00:20.696Z,99.98
2022-11-24T00:00:52.604Z,99.99
2022-11-24T00:01:29.531Z,99.99
2022-11-24T00:02:01.246Z,99.99
2022-11-24T00:02:32.919Z,99.99
2022-11-24T00:03:05.745Z,99.99
2022-11-24T00:03:37.819Z,99.93
2022-11-24T00:04:11.633Z,99.99
2022-11-24T00:04:43.136Z,99.96
2022-11-24T00:05:14.762Z,99.89
2022-11-24T00:05:46.297Z,99.80
2022-11-24T00:06:17.858Z,99.99
2022-11-24T00:06:49.375Z,99.89
2022-11-24T00:07:20.974Z,99.98
2022-11-24T00:07:52.618Z,99.99
2022-11-24T00:08:24.180Z,99.93
2022-11-24T00:08:56.753Z,99.99
2022-11-24T00:09:28.254Z,99.99
2022-11-24T00:09:59.749Z,99.99
2022-11-24T00:10:31.266Z,99.89
2022-11-24T00:11:12.059Z,99.97
2022-11-24T00:11:43.600Z,99.99
2022-11-24T00:12:15.109Z,99.99
2022-11-24T00:12:46.618Z,99.95
2022-11-24T00:13:18.129Z,99.99
2022-11-24T00:13:50.500Z,99.98
2022-11-24T00:14:22.125Z,99.99
2022-11-24T00:14:53.630Z,99.99
2022-11-24T00:15:25.286Z,99.99
2022-11-24T00:16:05.052Z,99.99
2022-11-24T00:16:38.098Z,99.99
2022-11-24T00:17:09.716Z,99.99
2022-11-24T00:17:41.275Z,99.99
2022-11-24T00:18:12.795Z,99.99
2022-11-24T00:18:47.562Z,99.99
2022-11-24T00:19:19.847Z,99.89
2022-11-24T00:19:51.599Z,99.99
2022-11-24T00:20:23.109Z,99.99
2022-11-24T00:20:54.659Z,99.99
2022-11-24T00:21:27.613Z,99.99
2022-11-24T00:21:59.193Z,99.99
2022-11-24T00:22:30.865Z,99.99
2022-11-24T00:23:02.404Z,99.99
2022-11-24T00:23:34.868Z,99.99
2022-11-24T00:24:06.894Z,99.99
2022-11-24T00:24:38.469Z,99.99
2022-11-24T00:25:10.055Z,99.99
2022-11-24T00:25:41.580Z,99.99
2022-11-24T00:26:15.930Z,99.99
2022-11-24T00:26:47.469Z,99.95
2022-11-24T00:27:19.059Z,99.99
2022-11-24T00:27:50.567Z,99.90
2022-11-24T00:28:22.075Z,99.90
2022-11-24T00:28:58.536Z,99.97
2022-11-24T00:29:30.033Z,99.97
2022-11-24T00:30:01.612Z,99.99
2022-11-24T00:30:34.068Z,99.99
2022-11-24T00:31:23.853Z,99.99
2022-11-24T00:31:56.550Z,99.95
2022-11-24T00:32:29.544Z,99.87
2022-11-24T00:33:01.071Z,99.94
2022-11-24T00:33:32.740Z,99.98
2022-11-24T00:34:07.403Z,99.92
2022-11-24T00:34:39.003Z,99.70
2022-11-24T00:35:10.583Z,99.90
2022-11-24T00:35:42.115Z,99.80
2022-11-24T00:36:14.490Z,99.80
2022-11-24T00:36:46.012Z,99.81
2022-11-24T00:37:17.521Z,99.82
2022-11-24T00:37:49.058Z,99.79
2022-11-24T00:38:20.590Z,99.99
2022-11-24T00:38:57.479Z,99.98
2022-11-24T00:39:29.013Z,99.89
2022-11-24T00:40:00.526Z,99.87
2022-11-24T00:40:34.953Z,99.87
2022-11-24T00:41:06.959Z,99.98
2022-11-24T00:41:38.911Z,99.79
2022-11-24T00:42:10.438Z,99.83
2022-11-24T00:42:41.979Z,99.99
2022-11-24T00:43:13.576Z,99.97
2022-11-24T00:43:45.097Z,99.99
2022-11-24T00:44:16.699Z,99.96
2022-11-24T00:44:48.196Z,99.99
2022-11-24T00:45:19.712Z,99.99
2022-11-24T00:45:51.395Z,99.93
2022-11-24T00:46:24.060Z,99.99
2022-11-24T00:46:55.726Z,99.99
2022-11-24T00:47:28.796Z,99.99
2022-11-24T00:48:00.322Z,99.99
2022-11-24T00:48:31.896Z,99.99
2022-11-24T00:49:03.683Z,99.99
2022-11-24T00:49:36.322Z,99.99
2022-11-24T00:50:08.225Z,99.99
2022-11-24T00:50:39.949Z,99.99
2022-11-24T00:51:13.420Z,99.99
2022-11-24T00:51:44.969Z,99.99
2022-11-24T00:52:16.562Z,99.99
2022-11-24T00:52:48.064Z,99.99
2022-11-24T00:53:19.591Z,99.99
2022-11-24T00:53:51.293Z,99.99
2022-11-24T00:54:23.069Z,99.99
2022-11-24T00:54:54.610Z,99.99
2022-11-24T00:55:26.213Z,99.99
2022-11-24T00:55:57.888Z,99.99
2022-11-24T00:56:29.815Z,99.99
2022-11-24T00:57:01.360Z,99.99
2022-11-24T00:57:35.130Z,99.99
2022-11-24T00:58:06.635Z,99.99
2022-11-24T00:58:38.488Z,99.99
2022-11-24T00:59:10.098Z,99.99
2022-11-24T00:59:41.618Z,99.99
2022-11-24T01:00:14.024Z,99.99
2022-11-24T01:00:45.544Z,99.99
2022-11-24T01:01:19.968Z,99.99
2022-11-24T01:01:51.660Z,99.99
2022-11-24T01:02:23.262Z,99.99
2022-11-24T01:02:54.841Z,99.99
2022-11-24T01:03:26.449Z,99.99
2022-11-24T01:04:01.352Z,99.99
2022-11-24T01:04:33.088Z,99.99
2022-11-24T01:05:05.276Z,99.99
2022-11-24T01:05:37.558Z,99.99
2022-11-24T01:06:14.617Z,99.99
2022-11-24T01:06:46.128Z,99.99
2022-11-24T01:07:17.739Z,99.99
2022-11-24T01:07:49.410Z,99.89
2022-11-24T01:08:20.994Z,99.99
2022-11-24T01:08:52.677Z,99.91
2022-11-24T01:09:24.296Z,99.83
2022-11-24T01:09:55.838Z,99.99
2022-11-24T01:10:27.397Z,99.99
2022-11-24T01:11:17.041Z,99.99
2022-11-24T01:12:04.212Z,99.99
2022-11-24T01:12:35.890Z,99.82
2022-11-24T01:13:07.479Z,99.75
2022-11-24T01:13:39.797Z,99.89
2022-11-24T01:14:11.310Z,99.72
2022-11-24T01:14:42.900Z,99.83
2022-11-24T01:15:14.469Z,99.80
2022-11-24T01:15:46.106Z,99.90
2022-11-24T01:16:29.540Z,99.75
2022-11-24T01:17:01.111Z,99.61
2022-11-24T01:17:32.636Z,99.85
2022-11-24T01:18:04.629Z,99.63
2022-11-24T01:18:36.161Z,99.68
2022-11-24T01:19:07.710Z,99.99
2022-11-24T01:19:39.221Z,99.90
2022-11-24T01:20:11.416Z,99.97
2022-11-24T01:20:42.945Z,99.97
2022-11-24T01:21:15.448Z,99.96
2022-11-24T01:21:47.268Z,99.99
2022-11-24T01:22:18.952Z,99.99
2022-11-24T01:22:50.504Z,99.99
2022-11-24T01:23:22.034Z,99.99
2022-11-24T01:23:53.549Z,99.99
2022-11-24T01:24:25.233Z,99.99
2022-11-24T01:24:56.745Z,99.99
2022-11-24T01:25:28.270Z,99.99
2022-11-24T01:25:59.835Z,99.99
2022-11-24T01:26:31.410Z,99.96
2022-11-24T01:27:02.963Z,99.99
2022-11-24T01:27:34.486Z,99.93
2022-11-24T01:28:05.987Z,99.96
2022-11-24T01:28:40.652Z,99.79
2022-11-24T01:29:16.585Z,99.88
2022-11-24T01:29:48.114Z,99.64
2022-11-24T01:30:19.912Z,99.69
2022-11-24T01:31:01.984Z,99.92
2022-11-24T01:31:33.582Z,99.90
2022-11-24T01:32:05.134Z,99.99
2022-11-24T01:32:37.342Z,99.99
2022-11-24T01:33:08.865Z,99.99
2022-11-24T01:33:40.420Z,99.99
2022-11-24T01:34:13.328Z,99.99
2022-11-24T01:34:44.846Z,99.89
2022-11-24T01:35:16.433Z,99.80
2022-11-24T01:35:47.949Z,99.42
2022-11-24T01:36:19.964Z,99.43
2022-11-24T01:36:51.481Z,99.75
2022-11-24T01:37:22.976Z,99.81
2022-11-24T01:37:54.500Z,99.56
2022-11-24T01:38:27.041Z,99.64
2022-11-24T01:38:58.554Z,99.61
2022-11-24T01:39:30.128Z,99.64
2022-11-24T01:40:01.700Z,99.75
2022-11-24T01:40:33.211Z,99.53
2022-11-24T01:41:08.772Z,99.66
2022-11-24T01:41:40.352Z,99.73
2022-11-24T01:42:11.916Z,99.68
2022-11-24T01:42:48.119Z,99.55
2022-11-24T01:43:21.535Z,99.70
2022-11-24T01:43:55.220Z,99.76
2022-11-24T01:44:29.202Z,99.91
2022-11-24T01:45:31.924Z,99.99
2022-11-24T01:46:28.388Z,99.88
2022-11-24T01:47:08.038Z,99.99
2022-11-24T01:47:43.636Z,99.99
2022-11-24T01:48:27.467Z,99.90
2022-11-24T01:49:08.868Z,99.99
2022-11-24T01:49:50.642Z,99.99
2022-11-24T01:50:22.913Z,99.95
2022-11-24T01:51:03.946Z,99.99
2022-11-24T01:51:46.460Z,99.84
2022-11-24T01:52:26.980Z,99.65
2022-11-24T01:52:58.587Z,99.77
2022-11-24T01:53:30.658Z,99.57
2022-11-24T01:54:07.858Z,99.46
2022-11-24T01:54:46.049Z,99.38
2022-11-24T01:55:25.637Z,99.60
2022-11-24T01:55:58.092Z,99.70
2022-11-24T01:56:30.894Z,99.63
2022-11-24T01:57:29.843Z,99.53
2022-11-24T01:58:18.528Z,99.36
2022-11-24T01:58:52.258Z,99.68
2022-11-24T01:59:25.375Z,99.44
2022-11-24T02:00:02.007Z,99.44
2022-11-24T02:01:13.801Z,99.17
2022-11-24T02:01:46.964Z,99.62
2022-11-24T02:02:19.584Z,99.41
2022-11-24T02:02:51.300Z,99.43
2022-11-24T02:03:28.169Z,99.52
2022-11-24T02:04:04.398Z,99.49
2022-11-24T02:04:37.076Z,99.23
2022-11-24T02:05:20.079Z,99.32
2022-11-24T02:06:04.905Z,99.60
2022-11-24T02:06:38.921Z,99.31
2022-11-24T02:07:12.617Z,99.48
2022-11-24T02:07:45.003Z,99.64
2022-11-24T02:08:43.928Z,99.76
2022-11-24T02:09:32.655Z,99.76
2022-11-24T02:10:10.797Z,99.74
2022-11-24T02:10:44.008Z,99.91
2022-11-24T02:11:15.649Z,99.48
2022-11-24T02:11:47.287Z,99.54
2022-11-24T02:12:18.874Z,99.77
2022-11-24T02:12:52.202Z,99.74
2022-11-24T02:13:24.971Z,99.66
2022-11-24T02:13:57.471Z,99.81
2022-11-24T02:14:29.187Z,99.63
2022-11-24T02:15:01.196Z,99.92
2022-11-24T02:15:34.470Z,99.67
2022-11-24T02:16:09.018Z,99.60
2022-11-24T02:16:42.802Z,99.60
2022-11-24T02:17:14.449Z,99.45
2022-11-24T02:17:46.027Z,99.43
2022-11-24T02:18:17.548Z,99.57
2022-11-24T02:18:49.147Z,99.76
2022-11-24T02:19:33.685Z,99.58
2022-11-24T02:20:08.566Z,99.89
2022-11-24T02:20:40.139Z,99.56
2022-11-24T02:21:14.713Z,99.99
2022-11-24T02:21:46.333Z,99.67
2022-11-24T02:22:25.936Z,99.76
2022-11-24T02:23:05.371Z,99.92
2022-11-24T02:24:00.560Z,99.68
2022-11-24T02:24:47.270Z,99.66
2022-11-24T02:25:56.107Z,99.60
2022-11-24T02:26:46.948Z,99.95
2022-11-24T02:27:19.340Z,99.65
2022-11-24T02:27:54.083Z,99.86
2022-11-24T02:28:29.671Z,99.94
2022-11-24T02:29:02.109Z,99.97
2022-11-24T02:29:33.914Z,99.99
2022-11-24T02:30:05.791Z,99.80
2022-11-24T02:30:37.549Z,99.78
2022-11-24T02:31:09.219Z,99.85
2022-11-24T02:31:51.249Z,99.65
2022-11-24T02:32:23.383Z,99.71
2022-11-24T02:32:55.053Z,99.80
2022-11-24T02:33:27.101Z,99.69
2022-11-24T02:33:58.739Z,99.68
2022-11-24T02:34:30.314Z,99.55
2022-11-24T02:35:05.075Z,99.80
2022-11-24T02:35:36.635Z,99.81
2022-11-24T02:36:08.237Z,99.97
2022-11-24T02:36:39.782Z,99.69
2022-11-24T02:37:11.372Z,99.90
2022-11-24T02:37:42.918Z,99.92
2022-11-24T02:38:14.490Z,99.99
2022-11-24T02:38:45.999Z,99.99
2022-11-24T02:39:17.608Z,99.99
2022-11-24T02:39:49.154Z,99.99
2022-11-24T02:40:25.636Z,99.99
2022-11-24T02:40:59.327Z,99.85
2022-11-24T02:41:31.073Z,99.60
2022-11-24T02:42:08.116Z,99.63
2022-11-24T02:42:44.348Z,99.75
2022-11-24T02:43:21.859Z,99.86
2022-11-24T02:43:56.535Z,99.81
2022-11-24T02:44:32.812Z,99.91
2022-11-24T02:45:05.047Z,99.84
2022-11-24T02:45:36.583Z,99.72
2022-11-24T02:46:09.304Z,99.93
2022-11-24T02:46:41.091Z,99.85
2022-11-24T02:47:13.611Z,99.53
2022-11-24T02:47:46.015Z,99.83
2022-11-24T02:48:17.641Z,99.80
2022-11-24T02:48:49.259Z,99.85
2022-11-24T02:49:20.782Z,99.75
2022-11-24T02:49:52.346Z,99.64
2022-11-24T02:50:24.010Z,99.81
2022-11-24T02:50:55.526Z,99.78
2022-11-24T02:51:27.989Z,99.74
2022-11-24T02:51:59.704Z,99.76
2022-11-24T02:52:31.539Z,99.99
2022-11-24T02:53:03.080Z,99.99
2022-11-24T02:53:34.789Z,99.84
2022-11-24T02:54:06.314Z,99.82
2022-11-24T02:54:37.846Z,99.99
2022-11-24T02:55:09.740Z,99.99
2022-11-24T02:55:41.315Z,99.95
2022-11-24T02:56:12.991Z,99.81
2022-11-24T02:56:44.499Z,99.99
2022-11-24T02:57:16.030Z,99.78
2022-11-24T02:57:47.547Z,99.92
2022-11-24T02:58:19.094Z,99.99
2022-11-24T02:58:50.593Z,99.99
2022-11-24T02:59:22.481Z,99.85
2022-11-24T02:59:54.016Z,99.99
2022-11-24T03:00:25.547Z,99.99
2022-11-24T03:00:57.979Z,99.99
2022-11-24T03:01:29.563Z,99.99
2022-11-24T03:02:01.217Z,99.99
2022-11-24T03:02:32.839Z,99.99
2022-11-24T03:03:04.558Z,99.99
2022-11-24T03:03:36.343Z,99.99
2022-11-24T03:04:07.965Z,99.87
2022-11-24T03:04:39.518Z,99.99
2022-11-24T03:05:12.084Z,99.92
2022-11-24T03:05:43.613Z,99.86
2022-11-24T03:06:15.148Z,99.99
2022-11-24T03:06:46.710Z,99.85
2022-11-24T03:07:18.401Z,99.99
2022-11-24T03:07:49.990Z,99.99
2022-11-24T03:08:21.618Z,99.98
2022-11-24T03:08:53.163Z,99.99
2022-11-24T03:09:24.677Z,99.99
2022-11-24T03:09:56.236Z,99.95
2022-11-24T03:10:28.496Z,99.81
2022-11-24T03:11:01.701Z,99.99
2022-11-24T03:11:33.236Z,99.99
2022-11-24T03:12:04.885Z,99.97
2022-11-24T03:12:36.483Z,99.99
2022-11-24T03:13:08.266Z,99.79
2022-11-24T03:13:39.779Z,99.75
2022-11-24T03:14:11.355Z,99.53
2022-11-24T03:14:42.864Z,99.87
2022-11-24T03:15:14.435Z,99.98
2022-11-24T03:15:46.137Z,99.98
2022-11-24T03:16:17.781Z,99.84
2022-11-24T03:16:49.361Z,99.99
2022-11-24T03:17:20.891Z,99.90
2022-11-24T03:17:56.743Z,99.68
2022-11-24T03:18:28.295Z,99.87
2022-11-24T03:19:00.469Z,99.66
2022-11-24T03:19:33.013Z,99.76
2022-11-24T03:20:05.471Z,99.80
2022-11-24T03:20:37.253Z,99.94
2022-11-24T03:21:09.135Z,99.76
2022-11-24T03:21:40.657Z,99.66
2022-11-24T03:22:14.761Z,99.75
2022-11-24T03:22:46.309Z,99.56
2022-11-24T03:23:17.866Z,99.50
2022-11-24T03:23:49.412Z,99.71
2022-11-24T03:24:21.127Z,99.78
2022-11-24T03:24:53.280Z,99.60
2022-11-24T03:25:24.802Z,99.21
2022-11-24T03:26:07.250Z,99.31
2022-11-24T03:26:38.775Z,99.05
2022-11-24T03:27:10.319Z,98.79
2022-11-24T03:27:41.913Z,98.73
2022-11-24T03:28:13.417Z,98.44
2022-11-24T03:28:45.207Z,98.28
2022-11-24T03:29:16.949Z,98.35
2022-11-24T03:29:48.477Z,98.57
2022-11-24T03:30:20.122Z,98.93
2022-11-24T03:30:51.707Z,98.54
2022-11-24T03:31:24.280Z,98.39
2022-11-24T03:31:55.865Z,98.42
2022-11-24T03:32:27.449Z,98.59
2022-11-24T03:32:59.007Z,98.71
2022-11-24T03:33:30.601Z,98.29
2022-11-24T03:34:02.231Z,98.19
2022-11-24T03:34:33.929Z,98.09
2022-11-24T03:35:06.117Z,98.40
2022-11-24T03:35:37.622Z,98.14
2022-11-24T03:36:09.635Z,97.85
2022-11-24T03:36:41.156Z,97.97
2022-11-24T03:37:12.692Z,98.00
2022-11-24T03:37:44.228Z,97.81
2022-11-24T03:38:15.724Z,97.55
2022-11-24T03:38:47.325Z,97.66
2022-11-24T03:39:18.833Z,97.65
2022-11-24T03:39:50.359Z,97.16
2022-11-24T03:40:21.868Z,97.58
2022-11-24T03:40:53.421Z,97.75
2022-11-24T03:41:24.926Z,98.06
2022-11-24T03:41:56.464Z,98.16
2022-11-24T03:42:28.208Z,97.54
2022-11-24T03:42:59.704Z,97.47
2022-11-24T03:43:32.021Z,97.23
2022-11-24T03:44:03.683Z,97.38
2022-11-24T03:44:35.440Z,97.76
2022-11-24T03:45:44.726Z,96.91
2022-11-24T03:45:59.116Z,97.27
2022-11-24T03:46:30.734Z,97.13
2022-11-24T03:47:02.376Z,96.93
2022-11-24T03:47:33.889Z,96.21
2022-11-24T03:48:06.364Z,96.63
2022-11-24T03:48:37.942Z,96.36
2022-11-24T03:49:09.994Z,96.15
2022-11-24T03:49:41.567Z,96.57
2022-11-24T03:50:13.076Z,96.71
2022-11-24T03:50:52.836Z,96.27
2022-11-24T03:51:24.378Z,96.33
2022-11-24T03:51:55.912Z,96.52
2022-11-24T03:52:27.474Z,96.31
2022-11-24T03:52:58.987Z,96.46
2022-11-24T03:53:32.124Z,96.51
2022-11-24T03:54:03.752Z,96.76
2022-11-24T03:54:35.712Z,96.75
2022-11-24T03:55:07.709Z,96.70
2022-11-24T03:55:39.231Z,96.67
2022-11-24T03:56:10.769Z,96.78
2022-11-24T03:56:42.773Z,96.91
2022-11-24T03:57:14.502Z,97.15
2022-11-24T03:57:46.108Z,96.66
2022-11-24T03:58:17.855Z,96.45
2022-11-24T03:58:50.046Z,96.09
2022-11-24T03:59:21.774Z,96.23
2022-11-24T03:59:53.285Z,96.75
2022-11-24T04:00:24.817Z,96.29
2022-11-24T04:00:57.115Z,96.30
2022-11-24T04:01:28.704Z,96.44
2022-11-24T04:02:00.387Z,96.12
2022-11-24T04:02:31.993Z,96.02
2022-11-24T04:03:03.716Z,96.05
2022-11-24T04:03:35.279Z,95.90
2022-11-24T04:04:06.820Z,96.10
2022-11-24T04:04:38.330Z,96.31
2022-11-24T04:05:10.314Z,96.90
2022-11-24T04:05:41.843Z,96.90
2022-11-24T04:06:13.362Z,96.65
2022-11-24T04:06:44.889Z,96.16
2022-11-24T04:07:17.139Z,96.26
2022-11-24T04:07:48.757Z,96.55
2022-11-24T04:08:20.684Z,97.01
2022-11-24T04:08:52.331Z,96.99
2022-11-24T04:09:23.882Z,96.63
2022-11-24T04:09:55.373Z,96.65
2022-11-24T04:10:26.949Z,95.81
2022-11-24T04:10:59.122Z,96.12
2022-11-24T04:11:49.172Z,96.52
2022-11-24T04:12:38.832Z,96.79
2022-11-24T04:13:13.464Z,96.48
2022-11-24T04:13:47.420Z,96.80
2022-11-24T04:14:19.458Z,96.52
2022-11-24T04:14:51.205Z,96.65
2022-11-24T04:15:22.744Z,96.61
2022-11-24T04:15:54.629Z,97.02
2022-11-24T04:16:26.431Z,97.24
2022-11-24T04:16:58.109Z,96.98
2022-11-24T04:17:29.641Z,96.90
2022-11-24T04:18:01.176Z,96.99
2022-11-24T04:18:32.729Z,96.78
2022-11-24T04:19:04.404Z,96.75
2022-11-24T04:19:35.910Z,96.77
2022-11-24T04:20:08.471Z,96.61
2022-11-24T04:20:41.044Z,96.90
2022-11-24T04:21:12.569Z,96.54
2022-11-24T04:21:44.085Z,96.36
2022-11-24T04:22:15.600Z,96.18
2022-11-24T04:22:47.170Z,96.16
2022-11-24T04:23:19.264Z,96.83
2022-11-24T04:23:50.793Z,96.69
2022-11-24T04:24:22.372Z,96.54
2022-11-24T04:24:53.933Z,96.53
2022-11-24T04:25:25.493Z,96.42
2022-11-24T04:25:56.997Z,96.69
2022-11-24T04:26:28.553Z,96.23
2022-11-24T04:27:00.081Z,96.77
2022-11-24T04:27:35.006Z,96.70
2022-11-24T04:28:06.587Z,96.99
2022-11-24T04:28:38.537Z,96.43
2022-11-24T04:29:10.153Z,96.31
2022-11-24T04:29:41.755Z,96.48
2022-11-24T04:30:13.325Z,96.96
2022-11-24T04:30:45.257Z,96.97
2022-11-24T04:31:17.062Z,96.36
2022-11-24T04:31:48.633Z,96.50
2022-11-24T04:32:20.545Z,96.51
2022-11-24T04:32:52.184Z,96.49
2022-11-24T04:33:23.926Z,96.49
2022-11-24T04:33:55.417Z,96.61
2022-11-24T04:34:26.965Z,96.35
2022-11-24T04:34:58.500Z,96.23
2022-11-24T04:35:30.268Z,96.90
2022-11-24T04:36:01.801Z,96.65
2022-11-24T04:36:33.346Z,96.81
2022-11-24T04:37:05.290Z,96.55
2022-11-24T04:37:36.915Z,96.30
2022-11-24T04:38:08.637Z,96.62
2022-11-24T04:39:23.289Z,96.36
2022-11-24T04:39:31.670Z,96.01
2022-11-24T04:40:04.973Z,96.39
2022-11-24T04:40:37.349Z,95.96
2022-11-24T04:41:09.261Z,96.06
2022-11-24T04:41:40.768Z,96.24
2022-11-24T04:42:13.174Z,96.55
2022-11-24T04:42:51.742Z,96.48
2022-11-24T04:43:23.275Z,96.24
2022-11-24T04:43:54.827Z,95.90
2022-11-24T04:44:26.923Z,95.91
2022-11-24T04:44:58.426Z,95.66
2022-11-24T04:45:29.968Z,96.05
2022-11-24T04:46:01.995Z,96.19
2022-11-24T04:46:33.593Z,96.32
2022-11-24T04:47:05.420Z,96.30
2022-11-24T04:47:37.067Z,96.14
2022-11-24T04:48:08.581Z,96.42
2022-11-24T04:48:40.080Z,95.89
2022-11-24T04:49:11.801Z,95.98
2022-11-24T04:49:43.389Z,96.01
2022-11-24T04:50:15.007Z,96.19
2022-11-24T04:50:46.551Z,96.08
2022-11-24T04:51:18.066Z,96.01
2022-11-24T04:51:49.790Z,96.09
2022-11-24T04:52:22.954Z,95.95
2022-11-24T04:52:54.463Z,95.75
2022-11-24T04:53:25.984Z,96.00
2022-11-24T04:53:57.496Z,95.84
2022-11-24T04:54:29.000Z,95.80
2022-11-24T04:55:00.556Z,96.14
2022-11-24T04:55:32.060Z,95.86
2022-11-24T04:56:07.093Z,96.08
2022-11-24T04:56:39.595Z,96.10
2022-11-24T04:57:23.128Z,96.49
2022-11-24T04:57:54.665Z,96.78
2022-11-24T04:58:26.163Z,96.46
2022-11-24T04:58:57.733Z,96.09
2022-11-24T04:59:29.317Z,96.27
2022-11-24T05:00:00.822Z,96.26
2022-11-24T05:00:32.334Z,96.94
2022-11-24T05:01:07.219Z,96.87
2022-11-24T05:01:38.795Z,96.56
2022-11-24T05:02:10.700Z,96.50
2022-11-24T05:02:42.434Z,96.50
2022-11-24T05:03:13.957Z,96.90
2022-11-24T05:03:45.533Z,96.97
2022-11-24T05:04:17.315Z,96.33
2022-11-24T05:04:49.061Z,96.38
2022-11-24T05:05:20.598Z,96.87
2022-11-24T05:05:52.108Z,96.84
2022-11-24T05:06:23.783Z,96.46
2022-11-24T05:06:55.286Z,96.31
2022-11-24T05:07:27.272Z,96.71
2022-11-24T05:07:59.900Z,96.71
2022-11-24T05:08:31.610Z,97.29
2022-11-24T05:09:03.663Z,97.16
2022-11-24T05:09:59.359Z,96.52
2022-11-24T05:10:37.267Z,96.32
2022-11-24T05:11:08.788Z,96.12
2022-11-24T05:11:42.793Z,95.64
2022-11-24T05:12:14.334Z,95.48
2022-11-24T05:12:51.071Z,95.88
2022-11-24T05:13:23.020Z,95.52
2022-11-24T05:13:54.577Z,95.68
2022-11-24T05:14:27.968Z,95.11
2022-11-24T05:15:03.800Z,95.35
2022-11-24T05:15:37.441Z,96.10
2022-11-24T05:16:09.425Z,95.97
2022-11-24T05:16:41.017Z,96.10
2022-11-24T05:17:12.586Z,95.66
2022-11-24T05:17:44.121Z,95.29
2022-11-24T05:18:16.671Z,95.28
2022-11-24T05:18:48.300Z,95.52
2022-11-24T05:19:20.112Z,95.32
2022-11-24T05:19:51.665Z,95.59
2022-11-24T05:20:23.498Z,95.65
2022-11-24T05:20:55.358Z,95.70
2022-11-24T05:21:27.948Z,95.41
2022-11-24T05:21:59.492Z,95.33
2022-11-24T05:22:31.822Z,95.41
2022-11-24T05:23:05.021Z,95.57
2022-11-24T05:23:36.607Z,95.57
2022-11-24T05:24:08.383Z,95.46
2022-11-24T05:24:39.987Z,95.60
2022-11-24T05:25:11.769Z,95.31
2022-11-24T05:25:47.478Z,95.46
2022-11-24T05:26:19.523Z,95.60
2022-11-24T05:26:51.138Z,96.08
2022-11-24T05:27:22.811Z,96.18
2022-11-24T05:27:54.389Z,96.00
2022-11-24T05:28:25.972Z,95.89
2022-11-24T05:28:57.510Z,95.83
2022-11-24T05:29:29.075Z,95.89
2022-11-24T05:30:00.683Z,95.73
2022-11-24T05:30:32.766Z,95.93
2022-11-24T05:31:05.024Z,95.80
2022-11-24T05:31:36.620Z,95.93
2022-11-24T05:32:08.223Z,96.52
2022-11-24T05:32:39.896Z,95.67
2022-11-24T05:33:19.081Z,95.51
2022-11-24T05:33:50.895Z,95.56
2022-11-24T05:34:22.481Z,95.82
2022-11-24T05:34:54.720Z,95.49
2022-11-24T05:35:26.335Z,95.40
2022-11-24T05:36:01.722Z,95.18
2022-11-24T05:36:51.821Z,94.95
2022-11-24T05:37:25.491Z,94.69
2022-11-24T05:37:58.658Z,94.92
2022-11-24T05:38:30.754Z,94.85
2022-11-24T05:39:02.300Z,95.10
2022-11-24T05:39:38.080Z,95.37
2022-11-24T05:40:09.859Z,95.10
2022-11-24T05:40:42.078Z,95.20
2022-11-24T05:41:13.623Z,95.21
2022-11-24T05:41:45.544Z,94.95
2022-11-24T05:42:35.679Z,95.00
2022-11-24T05:43:14.812Z,94.54
2022-11-24T05:43:46.359Z,94.65
2022-11-24T05:44:17.899Z,94.98
2022-11-24T05:44:49.551Z,95.31
2022-11-24T05:45:22.392Z,95.17
2022-11-24T05:45:53.959Z,95.35
2022-11-24T05:46:25.556Z,95.17
2022-11-24T05:46:57.223Z,95.06
2022-11-24T05:47:28.946Z,94.92
2022-11-24T05:48:08.882Z,95.04
2022-11-24T05:48:40.466Z,94.98
2022-11-24T05:49:12.058Z,94.85
2022-11-24T05:49:43.730Z,95.12
2022-11-24T05:50:18.019Z,94.86
2022-11-24T05:50:56.749Z,95.16
2022-11-24T05:51:28.342Z,95.32
2022-11-24T05:51:59.926Z,95.53
2022-11-24T05:52:31.539Z,95.52
2022-11-24T05:53:05.255Z,94.94
2022-11-24T05:53:36.878Z,94.87
2022-11-24T05:54:08.476Z,94.78
2022-11-24T05:54:40.088Z,95.42
2022-11-24T05:55:12.621Z,95.22
2022-11-24T05:55:44.222Z,94.83
2022-11-24T05:56:15.830Z,94.66
2022-11-24T05:56:47.378Z,95.09
2022-11-24T05:57:19.223Z,94.85
2022-11-24T05:57:58.349Z,95.18
2022-11-24T05:58:30.051Z,95.05
2022-11-24T05:59:06.657Z,95.06
2022-11-24T05:59:41.130Z,95.32
2022-11-24T06:00:13.938Z,95.47
2022-11-24T06:00:45.734Z,95.04
2022-11-24T06:01:17.262Z,94.87
2022-11-24T06:01:48.937Z,94.73
2022-11-24T06:02:20.767Z,94.77
2022-11-24T06:02:52.435Z,94.66
2022-11-24T06:03:24.169Z,94.70
2022-11-24T06:03:55.767Z,95.18
2022-11-24T06:04:27.389Z,95.02
2022-11-24T06:04:58.927Z,95.22
2022-11-24T06:05:30.590Z,95.60
2022-11-24T06:06:03.243Z,95.20
2022-11-24T06:06:34.826Z,95.62
2022-11-24T06:07:11.281Z,95.05
2022-11-24T06:07:42.882Z,95.04
2022-11-24T06:08:15.144Z,94.89
2022-11-24T06:08:46.683Z,95.16
2022-11-24T06:09:18.284Z,95.44
2022-11-24T06:09:49.908Z,95.32
2022-11-24T06:10:24.044Z,95.13
2022-11-24T06:11:17.188Z,94.94
2022-11-24T06:11:49.143Z,95.29
2022-11-24T06:12:20.771Z,95.08
2022-11-24T06:12:52.949Z,94.85
2022-11-24T06:13:24.615Z,94.72
2022-11-24T06:13:56.398Z,94.89
2022-11-24T06:14:28.199Z,94.75
2022-11-24T06:14:59.751Z,94.75
2022-11-24T06:15:31.282Z,94.91
2022-11-24T06:16:02.972Z,94.70
2022-11-24T06:16:34.605Z,94.74
2022-11-24T06:17:06.503Z,94.57
2022-11-24T06:17:38.629Z,95.06
2022-11-24T06:18:10.215Z,94.70
2022-11-24T06:18:41.818Z,94.76
2022-11-24T06:19:13.534Z,94.90
2022-11-24T06:19:47.938Z,94.86
2022-11-24T06:20:19.611Z,94.55
2022-11-24T06:21:09.501Z,94.38
2022-11-24T06:21:42.119Z,94.47
2022-11-24T06:22:13.693Z,94.30
2022-11-24T06:22:45.274Z,94.55
2022-11-24T06:23:16.868Z,94.56
2022-11-24T06:23:48.912Z,94.40
2022-11-24T06:24:20.711Z,94.47
2022-11-24T06:24:52.322Z,94.55
2022-11-24T06:25:23.910Z,94.32
2022-11-24T06:25:58.527Z,94.32
2022-11-24T06:26:30.063Z,94.45
2022-11-24T06:27:01.672Z,94.49
2022-11-24T06:27:33.264Z,94.32
2022-11-24T06:28:05.276Z,94.32
2022-11-24T06:28:36.929Z,94.41
2022-11-24T06:29:08.536Z,94.40
2022-11-24T06:29:40.242Z,94.19
2022-11-24T06:30:12.625Z,93.76
2022-11-24T06:30:44.154Z,92.93
2022-11-24T06:31:15.912Z,93.77
2022-11-24T06:31:47.560Z,93.61
2022-11-24T06:32:19.401Z,93.87
2022-11-24T06:32:54.991Z,93.89
2022-11-24T06:33:26.659Z,94.62
2022-11-24T06:33:59.246Z,93.87
2022-11-24T06:34:30.993Z,93.61
2022-11-24T06:35:02.843Z,93.04
2022-11-24T06:35:34.443Z,93.35
2022-11-24T06:36:08.639Z,93.58
2022-11-24T06:36:40.611Z,94.02
2022-11-24T06:37:12.207Z,93.77
2022-11-24T06:37:43.888Z,93.68
2022-11-24T06:38:20.110Z,94.09
2022-11-24T06:38:55.736Z,93.44
2022-11-24T06:39:27.495Z,93.79
2022-11-24T06:39:59.091Z,92.54
2022-11-24T06:40:30.659Z,92.61
2022-11-24T06:41:08.028Z,92.53
2022-11-24T06:41:39.623Z,93.12
2022-11-24T06:42:11.199Z,92.04
2022-11-24T06:42:42.744Z,92.09
2022-11-24T06:43:16.410Z,92.10
2022-11-24T06:43:48.083Z,91.79
2022-11-24T06:44:19.734Z,91.89
2022-11-24T06:44:51.379Z,91.92
2022-11-24T06:45:23.511Z,91.98
2022-11-24T06:45:55.782Z,92.27
2022-11-24T06:46:27.406Z,92.50
2022-11-24T06:46:58.991Z,92.43
2022-11-24T06:47:30.575Z,92.23
2022-11-24T06:48:02.222Z,92.64
2022-11-24T06:48:34.022Z,92.45
2022-11-24T06:49:05.636Z,92.82
2022-11-24T06:49:37.188Z,91.99
2022-11-24T06:50:10.612Z,91.08
2022-11-24T06:50:42.191Z,90.94
2022-11-24T06:51:13.892Z,91.22
2022-11-24T06:51:45.531Z,91.47
2022-11-24T06:52:17.080Z,91.04
2022-11-24T06:52:48.863Z,91.31
2022-11-24T06:53:20.423Z,91.96
2022-11-24T06:53:52.055Z,92.37
2022-11-24T06:54:23.771Z,92.40
2022-11-24T06:54:55.433Z,93.31
2022-11-24T06:55:27.136Z,92.20
2022-11-24T06:56:00.685Z,92.89
2022-11-24T06:56:32.223Z,93.40
2022-11-24T06:57:03.839Z,92.71
2022-11-24T06:57:35.439Z,92.99
2022-11-24T06:58:07.081Z,93.22
2022-11-24T06:58:46.612Z,92.84
2022-11-24T06:59:20.581Z,93.28
2022-11-24T06:59:52.178Z,93.32
2022-11-24T07:00:23.831Z,93.43
2022-11-24T07:00:55.502Z,93.49
2022-11-24T07:01:29.402Z,93.00
2022-11-24T07:02:00.984Z,93.28
2022-11-24T07:02:32.636Z,93.11
2022-11-24T07:03:05.288Z,92.92
2022-11-24T07:03:37.000Z,92.66
2022-11-24T07:04:08.848Z,92.64
2022-11-24T07:04:40.422Z,92.60
2022-11-24T07:05:12.006Z,92.71
2022-11-24T07:05:44.062Z,92.30
2022-11-24T07:06:17.356Z,92.08